Etusivu
METAR-TAF:

METAR-TAF

Lentoasemat :

Fairford, Englanti

Leveyspiiri: 51-41N, Pituuspiiri: 001-47W, korkeus merenpinnasta: 87 m

Tämänhetkinen sää

Tämä raportti tehtiin 22 minuuttia sitten, kello 15.26 UTC
Tuuli 16 kn koillisesta puuskistuen 22 kn:hen
Lämpötila 11°C
Kosteus 94%
Ilmanpaine 1002 hPa
Näkyvyys: 5000 m
Pilvistä 3200 ft:n korkeudessa
sadetta

METAR: EGVA 141526Z AUTO 05016G22KT 5000 RA OVC032 11/10 A2959 RMK AO2 SLP024 $

Aika: 16:48 (15:48 UTC)


TAF: puuttuu

Säähavainnot ja -ennusteet yli 4000 lentoasemalta (METAR- ja TAF-raportit).

Käytössä olevat sääasemat on merkitty karttaan keltaisilla ja punaisilla pisteillä.

Aseta hiiri pisteen päälle nähdäksesi sääaseman nimen.

Klikkaa sitten nähdäksesi säähavainnot ja -ennusteet.

Kartan vaihtaminen: klikkaa mustalla rastilla varustettuja vihreitä pisteitä, niin voit zoomata sisään; viivalla varustettua vihreää pistettä, niin voit zoomata ulos tai vihreitä nuolia, niin pääset viereisille kartoille.


METAR-TAF: